createdAt,value
2023-03-17T00:00:57.529Z,3.20
2023-03-17T00:03:26.650Z,3.05
2023-03-17T00:05:58.271Z,3.55
2023-03-17T00:08:35.220Z,3.13
2023-03-17T00:11:02.167Z,3.38
2023-03-17T00:13:32.533Z,3.40
2023-03-17T00:16:06.750Z,4.05
2023-03-17T00:18:37.305Z,3.88
2023-03-17T00:21:07.340Z,3.25
2023-03-17T00:23:38.903Z,3.10
2023-03-17T00:26:09.404Z,3.40
2023-03-17T00:33:51.602Z,3.45
2023-03-17T00:36:23.580Z,3.70
2023-03-17T00:38:51.838Z,3.30
2023-03-17T00:41:21.829Z,3.70
2023-03-17T00:43:52.898Z,3.38
2023-03-17T00:46:56.029Z,3.88
2023-03-17T00:49:28.458Z,4.28
2023-03-17T00:51:55.076Z,2.88
2023-03-17T00:54:27.960Z,3.00
2023-03-17T00:56:57.728Z,3.00
2023-03-17T00:59:41.626Z,3.30
2023-03-17T01:02:13.825Z,3.00
2023-03-17T01:04:47.600Z,3.25
2023-03-17T01:07:21.869Z,3.25
2023-03-17T01:09:51.282Z,3.72
2023-03-17T01:12:18.000Z,3.58
2023-03-17T01:14:45.295Z,3.50
2023-03-17T01:17:17.481Z,3.28
2023-03-17T01:19:45.361Z,2.90
2023-03-17T01:22:14.548Z,3.05
2023-03-17T01:24:42.561Z,3.00
2023-03-17T01:27:10.817Z,3.65
2023-03-17T01:29:38.000Z,2.83
2023-03-17T01:32:09.958Z,3.03
2023-03-17T01:34:36.679Z,3.63
2023-03-17T01:37:12.777Z,3.50
2023-03-17T01:39:45.867Z,3.05
2023-03-17T01:42:16.856Z,3.63
2023-03-17T01:45:06.523Z,2.85
2023-03-17T01:50:31.040Z,3.45
2023-03-17T01:55:56.074Z,2.80
2023-03-17T01:58:24.921Z,3.30
2023-03-17T02:00:54.925Z,3.13
2023-03-17T02:03:25.318Z,3.08
2023-03-17T02:05:53.967Z,3.40
2023-03-17T02:08:22.411Z,2.60
2023-03-17T02:10:49.901Z,3.30
2023-03-17T02:13:18.677Z,2.47
2023-03-17T02:15:48.825Z,2.45
2023-03-17T02:18:18.406Z,2.45
2023-03-17T02:20:49.294Z,3.03
2023-03-17T02:23:20.312Z,2.70
2023-03-17T02:25:53.438Z,2.72
2023-03-17T02:28:25.141Z,3.30
2023-03-17T02:30:53.642Z,2.70
2023-03-17T02:33:20.292Z,4.40
2023-03-17T02:36:12.343Z,2.67
2023-03-17T02:38:41.492Z,2.30
2023-03-17T02:41:10.782Z,3.42
2023-03-17T02:43:37.689Z,2.53
2023-03-17T02:46:05.007Z,3.13
2023-03-17T02:48:35.869Z,3.40
2023-03-17T02:51:07.732Z,3.10
2023-03-17T02:53:39.233Z,3.28
2023-03-17T02:56:11.079Z,3.28
2023-03-17T02:58:43.537Z,2.88
2023-03-17T03:01:14.945Z,3.10
2023-03-17T03:03:41.626Z,2.92
2023-03-17T03:06:12.598Z,2.58
2023-03-17T03:08:44.540Z,2.90
2023-03-17T03:11:11.333Z,3.30
2023-03-17T03:13:40.171Z,3.17
2023-03-17T03:16:09.863Z,2.85
2023-03-17T03:18:39.013Z,2.90
2023-03-17T03:21:06.570Z,2.40
2023-03-17T03:23:33.931Z,2.65
2023-03-17T03:26:00.650Z,2.33
2023-03-17T03:28:31.974Z,2.53
2023-03-17T03:30:58.793Z,2.28
2023-03-17T03:33:29.487Z,2.03
2023-03-17T03:35:56.469Z,2.33
2023-03-17T03:38:25.368Z,2.67
2023-03-17T03:40:54.962Z,2.53
2023-03-17T03:43:23.773Z,2.55
2023-03-17T03:45:53.905Z,2.67
2023-03-17T03:48:25.590Z,2.78
2023-03-17T03:51:00.612Z,2.85
2023-03-17T03:53:33.750Z,2.55
2023-03-17T03:56:01.133Z,2.42
2023-03-17T03:58:36.537Z,2.83
2023-03-17T04:01:08.736Z,2.70
2023-03-17T04:03:38.802Z,3.05
2023-03-17T04:06:05.864Z,2.60
2023-03-17T04:08:36.864Z,2.83
2023-03-17T04:11:08.141Z,3.22
2023-03-17T04:13:35.272Z,2.90
2023-03-17T04:16:08.310Z,2.67
2023-03-17T04:18:35.455Z,3.38
2023-03-17T04:21:02.120Z,3.88
2023-03-17T04:23:30.685Z,3.95
2023-03-17T04:25:57.688Z,3.88
2023-03-17T04:28:24.398Z,4.78
2023-03-17T04:30:51.061Z,7.63
2023-03-17T04:33:22.785Z,5.63
2023-03-17T04:35:51.826Z,5.70
2023-03-17T04:38:21.709Z,6.13
2023-03-17T04:40:53.656Z,6.78
2023-03-17T04:43:45.597Z,5.03
2023-03-17T04:46:15.896Z,3.75
2023-03-17T04:48:47.282Z,3.53
2023-03-17T04:51:13.851Z,3.25
2023-03-17T04:53:45.853Z,3.05
2023-03-17T04:56:16.103Z,3.10
2023-03-17T04:58:45.822Z,3.63
2023-03-17T05:01:15.840Z,3.55
2023-03-17T05:03:44.606Z,3.88
2023-03-17T05:06:11.499Z,3.50
2023-03-17T05:08:38.352Z,3.47
2023-03-17T05:11:06.243Z,3.13
2023-03-17T05:13:35.181Z,3.55
2023-03-17T05:16:01.937Z,4.00
2023-03-17T05:18:34.127Z,3.55
2023-03-17T05:21:26.315Z,4.20
2023-03-17T05:23:56.859Z,2.77
2023-03-17T05:26:26.430Z,4.05
2023-03-17T05:28:55.299Z,4.18
2023-03-17T05:31:22.026Z,5.97
2023-03-17T05:33:50.308Z,6.50
2023-03-17T05:36:17.292Z,5.28
2023-03-17T05:38:44.212Z,5.85
2023-03-17T05:41:11.547Z,9.82
2023-03-17T05:43:38.538Z,17.80
2023-03-17T05:46:10.448Z,16.35
2023-03-17T05:48:37.453Z,16.20
2023-03-17T05:51:06.404Z,14.43
2023-03-17T05:53:33.174Z,12.13
2023-03-17T05:56:01.754Z,12.27
2023-03-17T05:58:28.427Z,9.75
2023-03-17T06:00:55.760Z,9.45
2023-03-17T06:03:22.573Z,8.57
2023-03-17T06:05:53.060Z,8.68
2023-03-17T06:08:51.614Z,8.15
2023-03-17T06:11:23.160Z,8.80
2023-03-17T06:13:52.218Z,8.55
2023-03-17T06:16:30.103Z,8.45
2023-03-17T06:18:56.834Z,9.85
2023-03-17T06:21:23.898Z,16.52
2023-03-17T06:23:50.558Z,6.65
2023-03-17T06:26:17.283Z,5.50
2023-03-17T06:28:47.074Z,5.53
2023-03-17T06:31:18.581Z,5.80
2023-03-17T06:33:50.361Z,5.43
2023-03-17T06:36:19.241Z,7.68
2023-03-17T06:38:45.901Z,6.68
2023-03-17T06:41:18.391Z,6.95
2023-03-17T06:43:45.843Z,12.63
2023-03-17T06:46:15.853Z,13.10
2023-03-17T06:48:44.693Z,13.27
2023-03-17T06:51:12.335Z,13.40
2023-03-17T06:53:38.965Z,9.18
2023-03-17T06:56:05.923Z,5.18
2023-03-17T06:58:32.645Z,5.25
2023-03-17T07:00:59.642Z,4.85
2023-03-17T07:03:27.105Z,5.03
2023-03-17T07:05:56.047Z,3.58
2023-03-17T07:08:25.818Z,4.25
2023-03-17T07:10:56.634Z,3.75
2023-03-17T07:13:26.533Z,4.35
2023-03-17T07:15:59.102Z,4.32
2023-03-17T07:18:33.026Z,3.92
2023-03-17T07:23:29.662Z,2.63
2023-03-17T07:25:56.897Z,2.90
2023-03-17T07:28:26.382Z,2.60
2023-03-17T07:30:53.051Z,3.10
2023-03-17T07:33:22.878Z,2.80
2023-03-17T07:35:53.486Z,3.20
2023-03-17T07:38:24.389Z,3.10
2023-03-17T07:40:53.302Z,5.53
2023-03-17T07:43:20.051Z,5.68
2023-03-17T07:56:28.451Z,4.70
2023-03-17T07:58:59.947Z,4.13
2023-03-17T08:01:27.984Z,4.72
2023-03-17T08:04:01.893Z,4.07
2023-03-17T08:06:29.352Z,3.72
2023-03-17T08:08:56.226Z,3.85
2023-03-17T08:11:27.723Z,4.50
2023-03-17T08:16:22.757Z,4.93
2023-03-17T08:18:50.716Z,4.68
2023-03-17T08:21:19.824Z,7.03
2023-03-17T08:23:49.159Z,7.25
2023-03-17T08:26:18.463Z,5.95
2023-03-17T08:28:48.218Z,7.78
2023-03-17T08:31:20.064Z,6.32
2023-03-17T08:33:50.826Z,3.70
2023-03-17T08:36:18.937Z,3.72
2023-03-17T08:38:47.332Z,6.15
2023-03-17T08:41:17.496Z,4.43
2023-03-17T08:43:45.094Z,2.78
2023-03-17T08:46:30.201Z,2.70
2023-03-17T08:49:00.256Z,2.58
2023-03-17T08:51:36.212Z,2.10
2023-03-17T08:54:05.076Z,4.25
2023-03-17T08:56:32.340Z,2.30
2023-03-17T08:58:59.421Z,2.30
2023-03-17T09:01:32.259Z,2.10
2023-03-17T09:03:59.457Z,2.88
2023-03-17T09:06:29.547Z,2.72
2023-03-17T09:08:57.909Z,1.67
2023-03-17T09:11:29.643Z,1.42
2023-03-17T09:13:56.680Z,1.80
2023-03-17T09:16:27.281Z,2.40
2023-03-17T09:18:56.524Z,2.47
2023-03-17T09:21:23.174Z,1.90
2023-03-17T09:23:49.936Z,3.28
2023-03-17T09:26:19.757Z,1.80
2023-03-17T09:28:46.740Z,1.88
2023-03-17T09:31:19.815Z,1.80
2023-03-17T09:33:46.748Z,1.80
2023-03-17T09:36:15.196Z,2.20
2023-03-17T09:38:42.146Z,1.98
2023-03-17T09:41:17.719Z,2.13
2023-03-17T09:44:06.940Z,2.58
2023-03-17T09:46:47.250Z,2.22
2023-03-17T09:49:21.992Z,2.13
2023-03-17T09:51:52.531Z,2.35
2023-03-17T09:54:33.614Z,2.53
2023-03-17T09:57:09.699Z,2.33
2023-03-17T09:59:52.151Z,1.80
2023-03-17T10:02:26.400Z,2.22
2023-03-17T10:04:57.325Z,1.92
2023-03-17T10:07:39.294Z,1.70
2023-03-17T10:10:21.025Z,2.13
2023-03-17T10:12:50.615Z,1.87
2023-03-17T10:15:20.256Z,1.90
2023-03-17T10:17:47.529Z,3.40
2023-03-17T10:20:17.902Z,1.92
2023-03-17T10:22:47.289Z,2.45
2023-03-17T10:25:20.876Z,2.20
2023-03-17T10:27:56.497Z,1.83
2023-03-17T10:30:23.606Z,2.42
2023-03-17T10:32:57.924Z,2.20
2023-03-17T10:35:35.430Z,2.50
2023-03-17T10:38:18.238Z,2.38
2023-03-17T10:40:58.142Z,2.25
2023-03-17T10:43:30.241Z,2.10
2023-03-17T10:46:05.659Z,2.20
2023-03-17T10:48:40.911Z,2.10
2023-03-17T10:51:09.103Z,2.15
2023-03-17T10:53:44.165Z,2.25
2023-03-17T10:56:39.136Z,1.80
2023-03-17T10:59:14.380Z,2.33
2023-03-17T11:01:55.567Z,2.33
2023-03-17T11:04:27.306Z,2.08
2023-03-17T11:07:04.634Z,2.00
2023-03-17T11:09:37.442Z,1.98
2023-03-17T11:12:17.481Z,2.10
2023-03-17T11:14:44.123Z,2.25
2023-03-17T11:17:30.850Z,2.25
2023-03-17T11:20:18.435Z,1.90
2023-03-17T11:22:57.242Z,1.98
2023-03-17T11:25:27.768Z,1.60
2023-03-17T11:28:19.106Z,1.95
2023-03-17T11:30:51.237Z,2.67
2023-03-17T11:33:33.058Z,2.30
2023-03-17T11:36:36.681Z,2.20
2023-03-17T11:39:16.673Z,2.05
2023-03-17T11:42:15.461Z,1.80
2023-03-17T11:45:25.053Z,1.90
2023-03-17T11:48:07.451Z,2.10
2023-03-17T11:51:04.165Z,1.80
2023-03-17T11:54:03.292Z,2.10
2023-03-17T11:56:39.302Z,1.88
2023-03-17T11:59:19.066Z,2.15
2023-03-17T12:02:06.543Z,2.03
2023-03-17T12:04:42.693Z,1.90
2023-03-17T12:07:30.754Z,1.98
2023-03-17T12:10:08.956Z,2.00
2023-03-17T12:12:43.671Z,2.22
2023-03-17T12:15:59.215Z,2.17
2023-03-17T12:18:47.993Z,1.95
2023-03-17T12:21:36.221Z,2.10
2023-03-17T12:24:50.318Z,2.80
2023-03-17T12:27:33.362Z,1.92
2023-03-17T12:30:16.925Z,1.67
2023-03-17T12:32:49.413Z,1.77
2023-03-17T12:35:33.653Z,1.63
2023-03-17T12:38:16.866Z,1.70
2023-03-17T12:50:23.524Z,1.65
2023-03-17T12:52:52.163Z,1.65
2023-03-17T12:55:24.705Z,1.42
2023-03-17T12:58:10.100Z,1.60
2023-03-17T13:00:49.882Z,1.90
2023-03-17T13:03:27.523Z,2.00
2023-03-17T13:06:11.531Z,1.45
2023-03-17T13:08:42.386Z,1.40
2023-03-17T13:11:15.457Z,1.45
2023-03-17T13:13:54.259Z,1.70
2023-03-17T13:16:27.466Z,1.75
2023-03-17T13:19:15.814Z,1.42
2023-03-17T13:21:52.707Z,1.38
2023-03-17T13:24:47.363Z,1.48
2023-03-17T13:27:37.225Z,1.27
2023-03-17T13:30:23.486Z,6.55
2023-03-17T13:33:10.612Z,2.78
2023-03-17T13:36:10.844Z,1.40
2023-03-17T13:39:05.099Z,1.30
2023-03-17T13:41:49.129Z,1.77
2023-03-17T13:45:15.535Z,1.70
2023-03-17T13:47:45.163Z,1.60
2023-03-17T13:50:15.615Z,1.92
2023-03-17T13:52:54.737Z,1.52
2023-03-17T13:55:47.152Z,1.30
2023-03-17T13:58:25.460Z,1.40
2023-03-17T14:01:01.834Z,1.55
2023-03-17T14:03:36.665Z,1.60
2023-03-17T14:06:14.142Z,1.30
2023-03-17T14:08:52.376Z,1.30
2023-03-17T14:11:31.885Z,1.48
2023-03-17T14:14:33.368Z,1.45
2023-03-17T14:17:20.976Z,1.65
2023-03-17T14:20:30.519Z,1.17
2023-03-17T14:23:02.308Z,1.50
2023-03-17T14:25:42.148Z,1.65
2023-03-17T14:28:15.145Z,1.40
2023-03-17T14:30:53.139Z,1.80
2023-03-17T14:33:28.083Z,1.40
2023-03-17T14:36:05.561Z,3.35
2023-03-17T14:38:39.706Z,2.33
2023-03-17T14:50:29.017Z,1.35
2023-03-17T14:52:59.577Z,1.70
2023-03-17T14:55:42.701Z,1.45
2023-03-17T14:58:34.831Z,1.48
2023-03-17T15:01:42.261Z,21.85
2023-03-17T15:04:16.117Z,3.15
2023-03-17T15:07:01.308Z,2.03
2023-03-17T15:09:47.363Z,2.40
2023-03-17T15:12:23.882Z,2.15
2023-03-17T15:15:03.068Z,1.85
2023-03-17T15:17:35.362Z,2.10
2023-03-17T15:22:37.688Z,2.08
2023-03-17T15:25:23.369Z,2.53
2023-03-17T15:27:51.768Z,2.65
2023-03-17T15:30:19.202Z,2.20
2023-03-17T15:32:51.222Z,2.75
2023-03-17T15:35:18.454Z,2.67
2023-03-17T15:37:45.230Z,2.65
2023-03-17T15:40:13.128Z,2.58
2023-03-17T15:42:42.564Z,2.17
2023-03-17T15:47:46.626Z,2.78
2023-03-17T15:50:19.384Z,3.13
2023-03-17T15:52:46.191Z,3.95
2023-03-17T15:55:21.216Z,4.15
2023-03-17T15:57:54.789Z,3.58
2023-03-17T16:00:28.173Z,3.08
2023-03-17T16:03:06.609Z,3.28
2023-03-17T16:05:35.976Z,3.83
2023-03-17T16:08:02.823Z,3.47
2023-03-17T16:10:31.483Z,2.80
2023-03-17T16:12:58.524Z,2.97
2023-03-17T16:15:30.163Z,3.38
2023-03-17T16:17:59.640Z,3.72
2023-03-17T16:23:13.427Z,3.20
2023-03-17T16:25:41.009Z,3.63
2023-03-17T16:28:14.081Z,3.35
2023-03-17T16:30:46.683Z,3.75
2023-03-17T16:33:18.075Z,3.83
2023-03-17T16:35:51.620Z,3.53
2023-03-17T16:38:21.380Z,3.60
2023-03-17T16:40:51.120Z,3.53
2023-03-17T16:43:27.948Z,3.45
2023-03-17T16:46:02.231Z,3.55
2023-03-17T16:48:32.033Z,3.40
2023-03-17T16:50:59.257Z,3.20
2023-03-17T16:53:26.049Z,3.20
2023-03-17T16:55:53.727Z,3.15
2023-03-17T16:58:23.297Z,3.88
2023-03-17T17:00:52.904Z,5.53
2023-03-17T17:03:22.257Z,6.65
2023-03-17T17:05:50.336Z,6.55
2023-03-17T17:08:17.021Z,6.35
2023-03-17T17:10:46.413Z,5.22
2023-03-17T17:13:13.376Z,5.45
2023-03-17T17:15:41.643Z,5.57
2023-03-17T17:18:17.597Z,4.25
2023-03-17T17:20:48.073Z,4.45
2023-03-17T17:23:20.675Z,4.43
2023-03-17T17:25:49.686Z,4.07
2023-03-17T17:28:19.068Z,4.60
2023-03-17T17:30:47.287Z,5.22
2023-03-17T17:33:18.480Z,7.38
2023-03-17T17:35:47.761Z,5.60
2023-03-17T17:38:33.081Z,6.78
2023-03-17T17:41:05.092Z,9.07
2023-03-17T17:43:32.476Z,7.57
2023-03-17T17:45:59.599Z,8.45
2023-03-17T17:48:27.172Z,10.95
2023-03-17T17:51:01.400Z,10.40
2023-03-17T17:53:28.127Z,11.40
2023-03-17T17:55:54.857Z,14.70
2023-03-17T17:58:23.388Z,14.65
2023-03-17T18:00:56.203Z,15.23
2023-03-17T18:03:24.557Z,13.20
2023-03-17T18:05:53.028Z,14.05
2023-03-17T18:08:20.131Z,15.52
2023-03-17T18:10:46.928Z,13.55
2023-03-17T18:13:13.723Z,20.13
2023-03-17T18:15:42.612Z,17.25
2023-03-17T18:18:09.281Z,15.43
2023-03-17T18:20:41.943Z,16.73
2023-03-17T18:25:38.084Z,13.40
2023-03-17T18:28:11.059Z,19.33
2023-03-17T18:30:38.303Z,19.98
2023-03-17T18:35:59.006Z,11.52
2023-03-17T18:38:27.579Z,23.60
2023-03-17T18:40:58.093Z,15.50
2023-03-17T18:43:25.000Z,17.48
2023-03-17T18:45:52.851Z,9.25
2023-03-17T18:48:23.035Z,9.60
2023-03-17T18:50:50.096Z,6.53
2023-03-17T18:53:17.203Z,3.97
2023-03-17T18:55:49.573Z,6.10
2023-03-17T18:58:18.770Z,11.63
2023-03-17T19:00:48.133Z,9.95
2023-03-17T19:03:18.329Z,13.32
2023-03-17T19:08:38.650Z,11.68
2023-03-17T19:11:07.031Z,12.65
2023-03-17T19:13:42.172Z,9.00
2023-03-17T19:16:18.031Z,6.50
2023-03-17T19:18:45.000Z,7.82
2023-03-17T19:21:19.132Z,7.20
2023-03-17T19:23:46.526Z,4.30
2023-03-17T19:26:13.302Z,4.47
2023-03-17T19:28:45.972Z,3.65
2023-03-17T19:33:41.338Z,2.58
2023-03-17T19:36:14.648Z,2.88
2023-03-17T19:38:50.492Z,3.90
2023-03-17T19:41:17.985Z,8.30
2023-03-17T19:43:46.107Z,9.73
2023-03-17T19:46:19.745Z,7.38
2023-03-17T19:48:50.792Z,6.53
2023-03-17T19:51:17.449Z,5.70
2023-03-17T19:53:47.145Z,6.07
2023-03-17T19:56:15.282Z,8.65
2023-03-17T19:58:46.305Z,8.43
2023-03-17T20:01:13.129Z,6.47
2023-03-17T20:03:41.941Z,6.82
2023-03-17T20:09:04.556Z,5.40
2023-03-17T20:11:35.081Z,5.35
2023-03-17T20:14:07.207Z,4.10
2023-03-17T20:17:01.739Z,3.22
2023-03-17T20:19:32.383Z,3.50
2023-03-17T20:21:59.158Z,4.32
2023-03-17T20:24:27.866Z,3.90
2023-03-17T20:26:56.583Z,4.38
2023-03-17T20:29:23.605Z,4.13
2023-03-17T20:31:50.558Z,4.28
2023-03-17T20:34:17.338Z,3.83
2023-03-17T20:37:09.154Z,5.22
2023-03-17T20:39:46.214Z,12.55
2023-03-17T20:42:20.144Z,7.15
2023-03-17T20:44:52.118Z,7.43
2023-03-17T20:47:22.180Z,7.18
2023-03-17T20:49:52.426Z,7.47
2023-03-17T20:58:24.143Z,6.38
2023-03-17T21:00:54.394Z,20.63
2023-03-17T21:03:23.330Z,9.27
2023-03-17T21:05:53.524Z,6.78
2023-03-17T21:08:20.348Z,12.95
2023-03-17T21:10:47.110Z,4.07
2023-03-17T21:13:18.510Z,4.05
2023-03-17T21:15:47.939Z,4.13
2023-03-17T21:18:17.030Z,4.60
2023-03-17T21:20:46.223Z,4.70
2023-03-17T21:23:13.944Z,6.43
2023-03-17T21:25:47.050Z,43.60
2023-03-17T21:28:14.530Z,12.38
2023-03-17T21:30:44.139Z,4.97
2023-03-17T21:33:11.053Z,4.80
2023-03-17T21:35:40.376Z,4.97
2023-03-17T21:38:07.393Z,5.10
2023-03-17T21:40:39.750Z,4.93
2023-03-17T21:43:09.322Z,4.53
2023-03-17T21:45:36.709Z,7.10
2023-03-17T21:48:06.786Z,6.40
2023-03-17T21:50:33.818Z,10.05
2023-03-17T21:53:08.517Z,9.00
2023-03-17T21:55:37.933Z,9.07
2023-03-17T21:58:04.644Z,7.00
2023-03-17T22:00:42.597Z,5.78
2023-03-17T22:03:14.130Z,5.78
2023-03-17T22:05:43.259Z,7.22
2023-03-17T22:08:10.075Z,7.35
2023-03-17T22:10:39.079Z,9.15
2023-03-17T22:13:08.300Z,23.40
2023-03-17T22:15:48.051Z,28.33
2023-03-17T22:18:15.037Z,20.00
2023-03-17T22:20:41.717Z,10.48
2023-03-17T22:23:09.874Z,8.77
2023-03-17T22:25:37.007Z,6.07
2023-03-17T22:28:03.958Z,7.53
2023-03-17T22:30:33.515Z,7.47
2023-03-17T22:33:03.163Z,6.82
2023-03-17T22:35:32.219Z,4.35
2023-03-17T22:38:00.050Z,3.55
2023-03-17T22:40:28.151Z,3.63
2023-03-17T22:42:56.313Z,4.13
2023-03-17T22:45:25.914Z,4.22
2023-03-17T22:47:55.348Z,3.60
2023-03-17T22:50:24.240Z,3.20
2023-03-17T22:52:53.351Z,3.70
2023-03-17T22:55:23.431Z,3.70
2023-03-17T22:57:50.130Z,3.88
2023-03-17T23:00:17.507Z,3.55
2023-03-17T23:02:47.621Z,5.05
2023-03-17T23:05:20.481Z,4.68
2023-03-17T23:07:51.496Z,5.38
2023-03-17T23:10:23.970Z,4.72
2023-03-17T23:15:49.492Z,4.38
2023-03-17T23:18:24.985Z,4.40
2023-03-17T23:20:54.389Z,5.53
2023-03-17T23:23:23.309Z,9.38
2023-03-17T23:25:52.128Z,7.97
2023-03-17T23:28:19.815Z,8.43
2023-03-17T23:30:47.402Z,8.30
2023-03-17T23:33:16.600Z,7.93
2023-03-17T23:35:49.476Z,6.68
2023-03-17T23:38:18.748Z,4.30
2023-03-17T23:40:46.352Z,4.80
2023-03-17T23:43:15.790Z,4.72
2023-03-17T23:45:45.111Z,7.00
2023-03-17T23:48:14.468Z,4.68
2023-03-17T23:50:43.689Z,3.17
2023-03-17T23:53:10.841Z,3.45
2023-03-17T23:55:42.882Z,2.78
2023-03-17T23:58:09.437Z,2.78
